createdAt,value
2019-02-21T00:01:03.687Z,32.85
2019-02-21T00:03:24.049Z,32.70
2019-02-21T00:05:44.381Z,33.70
2019-02-21T00:08:04.747Z,33.28
2019-02-21T00:10:25.095Z,33.70
2019-02-21T00:12:45.379Z,33.50
2019-02-21T00:15:07.254Z,32.23
2019-02-21T00:17:27.543Z,32.85
2019-02-21T00:19:47.792Z,31.45
2019-02-21T00:22:08.107Z,31.68
2019-02-21T00:24:28.431Z,34.08
2019-02-21T00:26:48.700Z,32.85
2019-02-21T00:29:09.144Z,31.70
2019-02-21T00:31:29.484Z,32.17
2019-02-21T00:33:49.746Z,30.72
2019-02-21T00:36:10.104Z,30.90
2019-02-21T00:38:30.361Z,30.43
2019-02-21T00:40:50.712Z,31.75
2019-02-21T00:43:11.036Z,32.55
2019-02-21T00:45:32.371Z,31.60
2019-02-21T00:47:52.872Z,30.82
2019-02-21T00:50:13.181Z,30.08
2019-02-21T00:52:33.461Z,30.88
2019-02-21T00:54:53.978Z,31.30
2019-02-21T00:57:14.232Z,31.62
2019-02-21T00:59:34.887Z,30.15
2019-02-21T01:01:55.213Z,28.30
2019-02-21T01:04:15.559Z,28.90
2019-02-21T01:06:35.897Z,29.18
2019-02-21T01:08:56.171Z,29.77
2019-02-21T01:11:16.445Z,29.30
2019-02-21T01:13:37.271Z,28.92
2019-02-21T01:15:57.637Z,28.47
2019-02-21T01:18:17.922Z,28.00
2019-02-21T01:20:38.294Z,28.92
2019-02-21T01:22:58.661Z,28.23
2019-02-21T01:25:18.978Z,28.25
2019-02-21T01:27:39.315Z,27.60
2019-02-21T01:29:59.686Z,28.47
2019-02-21T01:32:21.793Z,27.60
2019-02-21T01:34:42.029Z,28.25
2019-02-21T01:37:03.297Z,28.12
2019-02-21T01:39:29.264Z,26.95
2019-02-21T01:41:56.394Z,26.68
2019-02-21T01:44:19.429Z,27.10
2019-02-21T01:46:39.154Z,25.40
2019-02-21T01:48:59.608Z,26.35
2019-02-21T01:51:19.944Z,26.80
2019-02-21T01:53:40.263Z,25.90
2019-02-21T01:56:00.533Z,26.77
2019-02-21T01:58:20.893Z,26.97
2019-02-21T02:00:42.151Z,26.30
2019-02-21T02:03:02.424Z,27.25
2019-02-21T02:05:22.744Z,25.30
2019-02-21T02:07:42.996Z,25.10
2019-02-21T02:10:03.283Z,25.68
2019-02-21T02:12:23.744Z,24.90
2019-02-21T02:14:44.082Z,24.75
2019-02-21T02:17:04.374Z,25.52
2019-02-21T02:19:24.622Z,25.43
2019-02-21T02:21:44.988Z,24.35
2019-02-21T02:24:05.353Z,25.50
2019-02-21T02:26:25.613Z,24.92
2019-02-21T02:28:45.955Z,23.73
2019-02-21T02:31:06.242Z,24.63
2019-02-21T02:33:26.575Z,25.20
2019-02-21T02:35:46.889Z,24.87
2019-02-21T02:38:07.212Z,25.97
2019-02-21T02:40:27.493Z,26.15
2019-02-21T02:42:47.778Z,25.52
2019-02-21T02:45:08.124Z,27.42
2019-02-21T02:47:28.405Z,26.15
2019-02-21T02:49:48.691Z,27.00
2019-02-21T02:52:09.031Z,26.85
2019-02-21T02:54:33.109Z,25.25
2019-02-21T02:56:53.491Z,25.37
2019-02-21T02:59:13.821Z,26.55
2019-02-21T03:01:35.196Z,26.42
2019-02-21T03:03:55.638Z,26.93
2019-02-21T03:06:15.903Z,26.57
2019-02-21T03:08:36.264Z,26.50
2019-02-21T03:10:56.776Z,24.87
2019-02-21T03:13:17.025Z,25.57
2019-02-21T03:15:37.331Z,25.00
2019-02-21T03:17:57.673Z,24.77
2019-02-21T03:20:17.969Z,25.08
2019-02-21T03:22:38.298Z,25.12
2019-02-21T03:24:58.552Z,25.50
2019-02-21T03:27:18.839Z,25.52
2019-02-21T03:29:39.179Z,24.63
2019-02-21T03:31:59.566Z,24.72
2019-02-21T03:34:20.197Z,24.12
2019-02-21T03:36:41.681Z,25.15
2019-02-21T03:39:02.069Z,24.60
2019-02-21T03:41:23.755Z,25.35
2019-02-21T03:43:44.113Z,25.65
2019-02-21T03:46:04.495Z,23.40
2019-02-21T03:48:25.007Z,24.55
2019-02-21T03:50:45.279Z,24.82
2019-02-21T03:53:05.657Z,26.17
2019-02-21T03:55:25.962Z,25.25
2019-02-21T03:57:46.303Z,24.77
2019-02-21T04:00:09.240Z,25.37
2019-02-21T04:02:29.271Z,24.82
2019-02-21T04:04:50.610Z,25.27
2019-02-21T04:07:11.267Z,24.75
2019-02-21T04:09:31.520Z,25.85
2019-02-21T04:11:51.775Z,26.20
2019-02-21T04:14:12.152Z,25.35
2019-02-21T04:16:32.641Z,26.07
2019-02-21T04:18:53.032Z,25.12
2019-02-21T04:21:13.375Z,25.15
2019-02-21T04:23:33.701Z,25.85
2019-02-21T04:25:53.994Z,25.55
2019-02-21T04:28:14.258Z,24.77
2019-02-21T04:30:34.736Z,27.13
2019-02-21T04:32:55.125Z,27.90
2019-02-21T04:35:15.490Z,26.12
2019-02-21T04:37:35.917Z,26.02
2019-02-21T04:39:56.309Z,26.90
2019-02-21T04:42:16.687Z,26.80
2019-02-21T04:44:36.949Z,26.70
2019-02-21T04:46:57.290Z,26.68
2019-02-21T04:49:17.612Z,25.05
2019-02-21T04:51:37.993Z,25.75
2019-02-21T04:53:58.354Z,27.02
2019-02-21T04:56:18.779Z,26.57
2019-02-21T04:58:39.139Z,26.10
2019-02-21T05:00:59.429Z,26.87
2019-02-21T05:03:19.772Z,27.25
2019-02-21T05:05:40.056Z,27.50
2019-02-21T05:08:00.484Z,26.25
2019-02-21T05:10:20.851Z,27.22
2019-02-21T05:12:41.290Z,26.77
2019-02-21T05:15:01.658Z,27.58
2019-02-21T05:17:22.026Z,26.73
2019-02-21T05:19:42.384Z,27.00
2019-02-21T05:22:02.645Z,28.30
2019-02-21T05:24:22.998Z,28.55
2019-02-21T05:26:44.992Z,27.25
2019-02-21T05:29:06.974Z,28.10
2019-02-21T05:31:28.971Z,28.38
2019-02-21T05:34:05.794Z,27.02
2019-02-21T05:36:30.573Z,27.10
2019-02-21T05:38:52.501Z,28.00
2019-02-21T05:41:30.692Z,29.05
2019-02-21T05:44:08.895Z,29.67
2019-02-21T05:46:39.936Z,27.67
2019-02-21T05:49:02.046Z,27.85
2019-02-21T05:51:29.740Z,28.52
2019-02-21T05:53:51.634Z,29.95
2019-02-21T05:56:13.641Z,28.20
2019-02-21T05:58:38.569Z,28.10
2019-02-21T06:01:09.631Z,28.52
2019-02-21T06:03:47.581Z,28.47
2019-02-21T06:06:25.750Z,28.75
2019-02-21T06:08:47.659Z,28.83
2019-02-21T06:11:09.743Z,30.95
2019-02-21T06:13:31.679Z,29.92
2019-02-21T06:15:59.450Z,28.02
2019-02-21T06:18:24.457Z,30.08
2019-02-21T06:21:04.551Z,32.70
2019-02-21T06:23:29.373Z,31.68
2019-02-21T06:25:55.851Z,33.58
2019-02-21T06:28:18.644Z,32.60
2019-02-21T06:30:43.236Z,33.30
2019-02-21T06:33:05.343Z,32.25
2019-02-21T06:35:24.649Z,31.73
2019-02-21T06:37:44.995Z,33.42
2019-02-21T06:40:06.304Z,33.67
2019-02-21T06:42:26.833Z,32.75
2019-02-21T06:44:47.080Z,32.88
2019-02-21T06:47:07.429Z,32.15
2019-02-21T06:49:32.434Z,31.68
2019-02-21T06:51:49.688Z,32.23
2019-02-21T06:54:09.934Z,31.27
2019-02-21T06:56:30.218Z,30.08
2019-02-21T06:58:50.484Z,31.95
2019-02-21T07:01:10.742Z,29.63
2019-02-21T07:03:31.008Z,30.80
2019-02-21T07:05:51.388Z,30.57
2019-02-21T07:08:11.642Z,30.77
2019-02-21T07:10:31.995Z,29.85
2019-02-21T07:12:52.251Z,31.25
2019-02-21T07:15:14.999Z,29.90
2019-02-21T07:17:34.619Z,30.97
2019-02-21T07:19:55.028Z,31.15
2019-02-21T07:22:17.974Z,30.97
2019-02-21T07:24:38.616Z,31.15
2019-02-21T07:26:59.692Z,23.35
2019-02-21T07:29:19.962Z,29.57
2019-02-21T07:31:40.314Z,30.30
2019-02-21T07:34:01.679Z,29.75
2019-02-21T07:36:22.255Z,29.92
2019-02-21T07:38:42.560Z,28.38
2019-02-21T07:41:03.996Z,28.10
2019-02-21T07:43:25.015Z,27.15
2019-02-21T07:45:45.399Z,26.65
2019-02-21T07:48:05.686Z,26.00
2019-02-21T07:50:27.974Z,25.75
2019-02-21T07:52:47.973Z,24.50
2019-02-21T07:55:10.407Z,22.70
2019-02-21T07:57:30.514Z,24.02
2019-02-21T07:59:50.867Z,23.30
2019-02-21T08:02:11.182Z,22.65
2019-02-21T08:04:31.531Z,22.15
2019-02-21T08:06:51.817Z,22.62
2019-02-21T08:09:11.611Z,22.02
2019-02-21T08:11:31.645Z,23.23
2019-02-21T08:13:51.975Z,22.45
2019-02-21T08:16:12.481Z,22.40
2019-02-21T08:18:32.355Z,22.22
2019-02-21T08:20:52.658Z,22.13
2019-02-21T08:23:12.529Z,23.60
2019-02-21T08:25:32.824Z,22.25
2019-02-21T08:27:52.623Z,23.92
2019-02-21T08:30:15.760Z,23.92
2019-02-21T08:32:38.898Z,23.83
2019-02-21T08:34:58.887Z,24.77
2019-02-21T08:37:19.072Z,26.03
2019-02-21T08:39:39.567Z,26.50
2019-02-21T08:42:00.033Z,26.93
2019-02-21T08:44:20.388Z,27.70
2019-02-21T08:46:40.751Z,28.95
2019-02-21T08:49:01.141Z,28.90
2019-02-21T08:51:21.487Z,29.18
2019-02-21T08:53:41.867Z,29.77
2019-02-21T08:56:02.227Z,29.55
2019-02-21T08:58:22.605Z,30.30
2019-02-21T09:00:42.546Z,29.85
2019-02-21T09:03:03.154Z,29.40
2019-02-21T09:05:22.915Z,27.52
2019-02-21T09:07:42.616Z,28.90
2019-02-21T09:10:02.945Z,28.83
2019-02-21T09:12:22.719Z,29.35
2019-02-21T09:14:43.071Z,30.12
2019-02-21T09:17:02.793Z,30.17
2019-02-21T09:19:23.064Z,29.72
2019-02-21T09:21:43.418Z,29.02
2019-02-21T09:24:03.743Z,28.52
2019-02-21T09:26:24.110Z,28.52
2019-02-21T09:28:43.837Z,29.85
2019-02-21T09:31:04.268Z,28.70
2019-02-21T09:33:24.854Z,28.55
2019-02-21T09:35:44.695Z,28.57
2019-02-21T09:38:04.967Z,30.25
2019-02-21T09:40:25.276Z,29.50
2019-02-21T09:42:45.687Z,29.98
2019-02-21T09:45:09.353Z,29.25
2019-02-21T09:47:30.936Z,31.00
2019-02-21T09:49:50.668Z,29.10
2019-02-21T09:52:11.373Z,30.12
2019-02-21T09:54:31.152Z,29.95
2019-02-21T09:56:53.092Z,30.35
2019-02-21T09:59:13.043Z,31.25
2019-02-21T10:01:32.830Z,32.15
2019-02-21T10:03:53.624Z,31.75
2019-02-21T10:06:13.924Z,31.48
2019-02-21T10:08:33.640Z,31.48
2019-02-21T10:10:53.464Z,32.25
2019-02-21T10:13:13.885Z,31.33
2019-02-21T10:15:33.673Z,31.60
2019-02-21T10:17:53.499Z,32.58
2019-02-21T10:20:15.413Z,31.93
2019-02-21T10:22:35.113Z,31.40
2019-02-21T10:24:56.949Z,32.90
2019-02-21T10:27:16.303Z,33.58
2019-02-21T10:29:36.009Z,32.63
2019-02-21T10:31:55.808Z,31.42
2019-02-21T10:34:16.124Z,33.05
2019-02-21T10:36:35.924Z,32.45
2019-02-21T10:38:56.753Z,32.33
2019-02-21T10:41:16.451Z,31.42
2019-02-21T10:43:36.766Z,31.48
2019-02-21T10:45:57.205Z,31.82
2019-02-21T10:48:16.968Z,31.55
2019-02-21T10:50:36.738Z,32.63
2019-02-21T10:52:57.151Z,32.38
2019-02-21T10:55:17.972Z,31.73
2019-02-21T10:57:37.765Z,31.68
2019-02-21T10:59:57.471Z,32.30
2019-02-21T11:02:17.188Z,31.50
2019-02-21T11:04:37.011Z,30.45
2019-02-21T11:06:57.072Z,31.93
2019-02-21T11:09:19.781Z,30.77
2019-02-21T11:11:39.875Z,30.45
2019-02-21T11:13:59.579Z,30.55
2019-02-21T11:16:19.382Z,29.72
2019-02-21T11:18:39.441Z,30.43
2019-02-21T11:20:59.575Z,29.83
2019-02-21T11:23:19.614Z,29.27
2019-02-21T11:25:39.670Z,29.00
2019-02-21T11:27:59.643Z,28.80
2019-02-21T11:30:21.347Z,28.60
2019-02-21T11:32:41.435Z,30.63
2019-02-21T11:35:06.219Z,28.53
2019-02-21T11:37:23.170Z,30.47
2019-02-21T11:39:43.213Z,28.20
2019-02-21T11:42:03.305Z,28.03
2019-02-21T11:44:23.350Z,26.30
2019-02-21T11:46:43.411Z,27.27
2019-02-21T11:49:03.578Z,26.43
2019-02-21T11:51:23.645Z,26.17
2019-02-21T11:53:43.654Z,25.73
2019-02-21T11:56:03.654Z,26.87
2019-02-21T11:58:23.736Z,28.03
2019-02-21T12:00:43.704Z,26.60
2019-02-21T12:03:03.729Z,24.17
2019-02-21T12:05:31.921Z,25.77
2019-02-21T12:07:45.729Z,25.60
2019-02-21T12:10:08.740Z,25.63
2019-02-21T12:12:28.797Z,25.15
2019-02-21T12:14:48.497Z,26.73
2019-02-21T12:17:08.300Z,27.62
2019-02-21T12:19:29.041Z,26.82
2019-02-21T12:21:58.666Z,27.85
2019-02-21T12:24:10.260Z,26.42
2019-02-21T12:26:30.013Z,25.17
2019-02-21T12:28:49.823Z,24.92
2019-02-21T12:31:09.562Z,25.30
2019-02-21T12:33:29.612Z,25.10
2019-02-21T12:35:49.608Z,23.33
2019-02-21T12:38:09.598Z,21.60
2019-02-21T12:40:29.622Z,20.30
2019-02-21T12:42:49.705Z,24.23
2019-02-21T12:45:13.110Z,27.30
2019-02-21T12:47:33.119Z,22.48
2019-02-21T12:49:55.442Z,21.15
2019-02-21T12:52:15.766Z,21.27
2019-02-21T12:54:36.067Z,21.97
2019-02-21T12:56:56.153Z,19.70
2019-02-21T12:59:16.146Z,21.07
2019-02-21T13:01:36.199Z,25.50
2019-02-21T13:03:56.215Z,23.83
2019-02-21T13:06:16.262Z,23.47
2019-02-21T13:08:36.450Z,19.90
2019-02-21T13:10:56.532Z,19.10
2019-02-21T13:13:18.588Z,19.37
2019-02-21T13:15:38.240Z,20.30
2019-02-21T13:17:58.249Z,17.87
2019-02-21T13:20:18.261Z,15.70
2019-02-21T13:22:38.598Z,14.57
2019-02-21T13:24:58.582Z,13.87
2019-02-21T13:27:18.590Z,15.23
2019-02-21T13:29:38.588Z,18.93
2019-02-21T13:31:58.642Z,18.43
2019-02-21T13:34:18.726Z,17.03
2019-02-21T13:36:40.644Z,18.70
2019-02-21T13:39:00.614Z,17.70
2019-02-21T13:41:22.193Z,15.47
2019-02-21T13:43:42.206Z,14.10
2019-02-21T13:46:02.608Z,14.90
2019-02-21T13:48:22.725Z,13.90
2019-02-21T13:50:42.805Z,18.60
2019-02-21T13:53:02.783Z,16.63
2019-02-21T13:55:22.776Z,18.03
2019-02-21T13:57:42.851Z,15.87
2019-02-21T14:00:02.918Z,15.07
2019-02-21T14:02:24.558Z,13.20
2019-02-21T14:04:44.747Z,14.10
2019-02-21T14:07:04.730Z,13.97
2019-02-21T14:09:24.793Z,13.30
2019-02-21T14:11:44.873Z,12.40
2019-02-21T14:14:04.888Z,15.73
2019-02-21T14:16:24.962Z,14.23
2019-02-21T14:18:44.947Z,15.20
2019-02-21T14:21:05.050Z,15.00
2019-02-21T14:23:25.127Z,16.07
2019-02-21T14:25:45.273Z,16.17
2019-02-21T14:28:05.493Z,15.80
2019-02-21T14:30:25.466Z,16.40
2019-02-21T14:32:45.586Z,15.87
2019-02-21T14:35:08.608Z,17.27
2019-02-21T14:39:47.340Z,16.42
2019-02-21T14:42:09.302Z,16.77
2019-02-21T14:44:29.312Z,16.50
2019-02-21T14:46:50.258Z,17.80
2019-02-21T14:49:10.459Z,16.57
2019-02-21T14:51:30.544Z,17.77
2019-02-21T14:53:50.590Z,17.30
2019-02-21T14:56:10.579Z,16.87
2019-02-21T14:58:30.674Z,17.40
2019-02-21T15:00:50.735Z,17.47
2019-02-21T15:03:21.206Z,16.03
2019-02-21T15:05:32.447Z,16.70
2019-02-21T15:07:52.515Z,15.67
2019-02-21T15:10:12.517Z,15.13
2019-02-21T15:12:35.533Z,14.83
2019-02-21T15:14:54.628Z,14.05
2019-02-21T15:17:14.911Z,14.70
2019-02-21T15:19:34.637Z,14.53
2019-02-21T15:21:54.470Z,15.58
2019-02-21T15:24:14.301Z,15.13
2019-02-21T15:26:34.575Z,14.75
2019-02-21T15:28:54.858Z,13.88
2019-02-21T15:31:15.219Z,15.28
2019-02-21T15:33:35.001Z,14.95
2019-02-21T15:35:54.793Z,15.55
2019-02-21T15:38:19.979Z,15.78
2019-02-21T15:40:35.977Z,16.00
2019-02-21T15:42:55.708Z,15.08
2019-02-21T15:45:23.627Z,16.05
2019-02-21T15:47:41.855Z,14.80
2019-02-21T15:50:01.715Z,16.10
2019-02-21T15:52:22.769Z,15.90
2019-02-21T15:54:42.847Z,14.80
2019-02-21T15:57:02.624Z,15.85
2019-02-21T15:59:22.414Z,14.33
2019-02-21T16:01:47.599Z,15.90
2019-02-21T16:04:04.794Z,15.80
2019-02-21T16:06:25.126Z,14.68
2019-02-21T16:08:45.575Z,14.73
2019-02-21T16:11:05.298Z,14.45
2019-02-21T16:13:25.652Z,13.72
2019-02-21T16:15:46.080Z,14.70
2019-02-21T16:18:06.401Z,14.23
2019-02-21T16:20:26.800Z,13.35
2019-02-21T16:22:47.215Z,14.35
2019-02-21T16:25:13.277Z,14.25
2019-02-21T16:27:33.589Z,14.47
2019-02-21T16:29:53.903Z,15.30
2019-02-21T16:32:14.270Z,15.30
2019-02-21T16:34:35.571Z,15.03
2019-02-21T16:37:02.429Z,14.23
2019-02-21T16:39:17.930Z,16.37
2019-02-21T16:41:38.299Z,15.93
2019-02-21T16:43:58.593Z,15.38
2019-02-21T16:46:18.858Z,14.98
2019-02-21T16:48:39.213Z,13.60
2019-02-21T16:50:59.549Z,15.25
2019-02-21T16:53:20.036Z,14.85
2019-02-21T16:55:40.387Z,15.40
2019-02-21T16:58:00.670Z,15.93
2019-02-21T17:00:23.086Z,15.50
2019-02-21T17:02:43.412Z,15.38
2019-02-21T17:05:04.677Z,14.87
2019-02-21T17:07:25.126Z,14.63
2019-02-21T17:09:45.473Z,14.87
2019-02-21T17:12:05.847Z,14.20
2019-02-21T17:14:26.235Z,15.25
2019-02-21T17:16:46.610Z,14.93
2019-02-21T17:19:06.892Z,14.07
2019-02-21T17:21:27.254Z,14.80
2019-02-21T17:23:47.758Z,14.85
2019-02-21T17:26:08.117Z,15.30
2019-02-21T17:28:28.399Z,15.83
2019-02-21T17:30:49.167Z,15.72
2019-02-21T17:33:10.077Z,15.45
2019-02-21T17:35:30.759Z,15.70
2019-02-21T17:37:51.200Z,16.07
2019-02-21T17:40:17.426Z,17.75
2019-02-21T17:42:37.733Z,16.80
2019-02-21T17:44:58.008Z,16.48
2019-02-21T17:47:18.290Z,16.73
2019-02-21T17:49:38.670Z,16.50
2019-02-21T17:51:58.959Z,16.23
2019-02-21T17:54:19.272Z,16.07
2019-02-21T17:56:39.648Z,16.57
2019-02-21T17:58:59.987Z,16.07
2019-02-21T18:01:20.354Z,16.95
2019-02-21T18:03:40.626Z,16.35
2019-02-21T18:06:01.326Z,16.37
2019-02-21T18:08:21.671Z,16.97
2019-02-21T18:10:42.041Z,17.07
2019-02-21T18:13:02.355Z,17.35
2019-02-21T18:15:22.708Z,17.77
2019-02-21T18:17:43.030Z,15.72
2019-02-21T18:20:04.171Z,15.70
2019-02-21T18:22:24.462Z,14.73
2019-02-21T18:24:45.048Z,15.90
2019-02-21T18:27:05.464Z,16.57
2019-02-21T18:29:26.217Z,17.67
2019-02-21T18:31:46.582Z,18.85
2019-02-21T18:34:06.937Z,16.10
2019-02-21T18:36:27.272Z,17.27
2019-02-21T18:38:47.620Z,17.70
2019-02-21T18:41:09.933Z,18.32
2019-02-21T18:43:30.420Z,13.40
2019-02-21T18:45:50.756Z,18.17
2019-02-21T18:48:11.097Z,17.42
2019-02-21T18:50:38.322Z,20.88
2019-02-21T18:52:53.364Z,22.60
2019-02-21T18:55:13.686Z,21.00
2019-02-21T18:57:34.089Z,21.48
2019-02-21T18:59:54.436Z,21.65
2019-02-21T19:02:14.810Z,20.68
2019-02-21T19:04:35.167Z,21.15
2019-02-21T19:06:55.482Z,20.97
2019-02-21T19:09:15.917Z,21.33
2019-02-21T19:11:36.317Z,20.97
2019-02-21T19:13:56.618Z,19.95
2019-02-21T19:16:17.084Z,18.77
2019-02-21T19:18:37.408Z,18.40
2019-02-21T19:20:57.686Z,18.57
2019-02-21T19:23:18.203Z,18.42
2019-02-21T19:25:38.665Z,17.82
2019-02-21T19:27:59.014Z,17.67
2019-02-21T19:30:28.276Z,18.85
2019-02-21T19:32:48.693Z,18.42
2019-02-21T19:35:09.511Z,19.20
2019-02-21T19:37:31.220Z,19.05
2019-02-21T19:39:51.627Z,19.30
2019-02-21T19:42:11.894Z,18.02
2019-02-21T19:44:32.320Z,18.55
2019-02-21T19:46:52.795Z,19.12
2019-02-21T19:49:13.348Z,19.00
2019-02-21T19:51:33.683Z,18.67
2019-02-21T19:53:55.340Z,17.85
2019-02-21T19:56:17.303Z,18.52
2019-02-21T19:58:37.760Z,19.80
2019-02-21T20:00:59.283Z,20.48
2019-02-21T20:03:19.616Z,19.20
2019-02-21T20:05:40.001Z,19.45
2019-02-21T20:08:08.061Z,19.00
2019-02-21T20:10:23.213Z,21.57
2019-02-21T20:12:43.549Z,24.05
2019-02-21T20:15:06.016Z,23.52
2019-02-21T20:17:26.194Z,21.48
2019-02-21T20:19:46.462Z,22.65
2019-02-21T20:22:06.756Z,21.82
2019-02-21T20:24:28.601Z,21.25
2019-02-21T20:26:49.578Z,20.60
2019-02-21T20:29:10.824Z,19.67
2019-02-21T20:31:31.098Z,19.48
2019-02-21T20:33:51.575Z,20.85
2019-02-21T20:36:12.070Z,18.95
2019-02-21T20:38:32.551Z,19.62
2019-02-21T20:40:54.185Z,18.95
2019-02-21T20:43:14.656Z,18.52
2019-02-21T20:45:35.056Z,19.60
2019-02-21T20:47:55.334Z,18.40
2019-02-21T20:50:16.593Z,19.10
2019-02-21T20:52:36.956Z,17.40
2019-02-21T20:54:57.368Z,18.35
2019-02-21T20:57:17.706Z,18.87
2019-02-21T20:59:38.050Z,18.75
2019-02-21T21:01:58.341Z,17.57
2019-02-21T21:04:18.670Z,18.35
2019-02-21T21:06:38.953Z,17.80
2019-02-21T21:09:01.081Z,17.17
2019-02-21T21:11:24.012Z,18.27
2019-02-21T21:13:45.003Z,17.50
2019-02-21T21:16:05.565Z,15.20
2019-02-21T21:18:26.353Z,16.40
2019-02-21T21:20:46.655Z,17.17
2019-02-21T21:23:07.175Z,17.25
2019-02-21T21:25:27.584Z,16.45
2019-02-21T21:27:47.922Z,15.70
2019-02-21T21:30:10.459Z,16.70
2019-02-21T21:32:30.797Z,17.40
2019-02-21T21:34:51.653Z,16.45
2019-02-21T21:37:11.975Z,16.10
2019-02-21T21:39:32.322Z,16.62
2019-02-21T21:41:52.719Z,16.52
2019-02-21T21:44:13.069Z,16.45
2019-02-21T21:46:33.324Z,16.25
2019-02-21T21:48:53.623Z,16.23
2019-02-21T21:51:13.949Z,16.90
2019-02-21T21:53:34.260Z,16.45
2019-02-21T21:55:54.528Z,15.65
2019-02-21T21:58:14.867Z,16.30
2019-02-21T22:00:35.153Z,16.35
2019-02-21T22:02:55.448Z,16.17
2019-02-21T22:05:15.703Z,16.20
2019-02-21T22:07:35.959Z,15.53
2019-02-21T22:09:56.260Z,16.32
2019-02-21T22:12:16.536Z,15.50
2019-02-21T22:14:36.796Z,15.38
2019-02-21T22:16:57.223Z,15.90
2019-02-21T22:19:17.591Z,16.77
2019-02-21T22:21:37.880Z,17.37
2019-02-21T22:23:58.194Z,16.27
2019-02-21T22:26:18.533Z,14.95
2019-02-21T22:28:39.883Z,15.40
2019-02-21T22:31:00.344Z,15.95
2019-02-21T22:33:20.613Z,14.10
2019-02-21T22:35:40.990Z,16.70
2019-02-21T22:38:01.372Z,17.95
2019-02-21T22:40:21.739Z,17.02
2019-02-21T22:42:42.035Z,16.82
2019-02-21T22:45:02.410Z,17.23
2019-02-21T22:47:22.769Z,16.12
2019-02-21T22:49:43.232Z,17.67
2019-02-21T22:52:03.600Z,16.10
2019-02-21T22:54:23.888Z,15.88
2019-02-21T22:56:44.152Z,15.05
2019-02-21T22:59:04.410Z,15.40
2019-02-21T23:01:27.650Z,16.52
2019-02-21T23:06:14.280Z,15.68
2019-02-21T23:08:44.999Z,13.70
2019-02-21T23:11:05.327Z,12.88
2019-02-21T23:13:25.643Z,13.75
2019-02-21T23:15:46.015Z,12.98
2019-02-21T23:18:06.314Z,13.28
2019-02-21T23:20:26.645Z,13.28
2019-02-21T23:22:46.951Z,13.18
2019-02-21T23:25:08.203Z,13.75
2019-02-21T23:27:28.466Z,13.03
2019-02-21T23:29:49.878Z,12.63
2019-02-21T23:32:10.197Z,12.93
2019-02-21T23:34:37.853Z,12.37
2019-02-21T23:36:58.219Z,14.15
2019-02-21T23:39:18.497Z,13.15
2019-02-21T23:41:38.786Z,13.62
2019-02-21T23:43:59.039Z,14.20
2019-02-21T23:46:19.305Z,12.95
2019-02-21T23:48:39.733Z,13.05
2019-02-21T23:50:59.994Z,12.25
2019-02-21T23:53:20.255Z,12.73
2019-02-21T23:55:40.554Z,12.98
2019-02-21T23:58:00.860Z,12.53
